Time;durP1;ratioP1;P1;durP2;ratioP2;P2;SDS_P1;SDS_P2;PMS_P1;PMS_P2;Temp;Humidity;BMP_temperature;BMP_pressure;BME280_temperature;BME280_humidity;BME280_pressure;Samples;Min_cycle;Max_cycle;Signal;HPM_P1;HPM_P2
2022/05/19 00:02:10;;;;;;;4.67;1.60;;;;;;;9.53;63.22;95950.81;5077033;28;20331;-70
2022/05/19 00:04:36;;;;;;;2.97;1.70;;;;;;;9.38;63.87;95952.00;5058268;28;20224;-71
2022/05/19 00:07:02;;;;;;;6.33;1.70;;;;;;;9.39;63.91;95951.09;5059238;28;20292;-71
2022/05/19 00:09:28;;;;;;;6.83;2.17;;;;;;;9.38;64.06;95959.88;5064259;28;20235;-71
2022/05/19 00:11:55;;;;;;;5.60;1.63;;;;;;;9.48;63.92;95952.97;5063220;28;20233;-71
2022/05/19 00:14:21;;;;;;;3.60;2.07;;;;;;;9.46;63.78;95954.88;5064622;28;20204;-70
2022/05/19 00:16:46;;;;;;;3.83;2.00;;;;;;;9.44;64.41;95952.38;5064826;28;20201;-69
2022/05/19 00:19:13;;;;;;;4.20;1.83;;;;;;;9.34;64.87;95946.19;5061762;28;20220;-70
2022/05/19 00:21:39;;;;;;;2.50;1.87;;;;;;;9.40;64.87;95940.44;5061024;28;20278;-65
2022/05/19 00:24:05;;;;;;;4.30;2.53;;;;;;;9.33;65.14;95946.28;5059449;28;20222;-71
2022/05/19 00:26:30;;;;;;;3.60;2.40;;;;;;;9.40;65.19;95950.13;5060879;28;20205;-64
2022/05/19 00:28:56;;;;;;;6.97;3.00;;;;;;;9.45;65.53;95955.84;5054928;28;20197;-70
2022/05/19 00:31:21;;;;;;;4.10;2.37;;;;;;;9.39;65.45;95953.72;5061311;28;20232;-67
2022/05/19 00:33:47;;;;;;;3.40;2.40;;;;;;;9.42;65.11;95962.16;5060565;28;20256;-68
2022/05/19 00:36:18;;;;;;;4.70;2.43;;;;;;;9.29;65.60;95964.09;5063632;28;20353;-68
2022/05/19 00:38:44;;;;;;;3.87;2.97;;;;;;;9.36;65.85;95962.66;5060870;28;20235;-71
2022/05/19 00:41:10;;;;;;;4.87;3.27;;;;;;;9.13;67.34;95972.31;5060857;28;20209;-71
2022/05/19 00:43:42;;;;;;;3.93;2.97;;;;;;;9.30;66.87;95964.91;5062064;28;20237;-66
2022/05/19 00:46:18;;;;;;;5.50;2.90;;;;;;;9.33;66.80;95965.53;5058386;28;20220;-72
2022/05/19 00:49:13;;;;;;;6.30;2.30;;;;;;;9.41;66.30;95975.41;5061444;28;20227;-71
2022/05/19 00:52:10;;;;;;;3.97;2.63;;;;;;;9.28;66.33;95981.63;5082768;28;20233;-67
2022/05/19 00:54:41;;;;;;;13.17;3.37;;;;;;;9.27;67.03;95977.34;5023290;28;20261;-68
2022/05/19 00:57:13;;;;;;;6.93;3.37;;;;;;;9.21;67.16;95975.19;5036281;28;20236;-68
2022/05/19 01:00:02;;;;;;;6.60;2.90;;;;;;;9.23;67.02;95969.81;5039034;28;20241;-67
2022/05/19 01:02:33;;;;;;;7.90;2.80;;;;;;;9.18;66.81;95979.84;5042908;28;20298;-71
2022/05/19 01:05:28;;;;;;;6.03;2.90;;;;;;;9.20;66.83;95980.56;5046215;28;20205;-71
2022/05/19 01:08:16;;;;;;;4.60;2.90;;;;;;;9.22;67.38;95986.50;4957509;28;20400;-71
2022/05/19 01:10:44;;;;;;;4.50;2.87;;;;;;;9.36;66.78;95988.06;4959709;28;20228;-67
2022/05/19 01:13:11;;;;;;;4.67;3.00;;;;;;;9.36;66.51;95990.69;4961234;28;20316;-67
2022/05/19 01:15:52;;;;;;;4.10;2.93;;;;;;;9.22;66.95;95991.75;4959593;28;20299;-70
2022/05/19 01:18:18;;;;;;;3.90;3.13;;;;;;;9.42;66.52;95984.97;4946353;28;20251;-67
2022/05/19 01:20:46;;;;;;;5.20;2.73;;;;;;;9.42;66.74;95996.28;4934194;28;20233;-69
2022/05/19 01:23:20;;;;;;;5.67;2.77;;;;;;;9.37;66.82;95992.34;4951467;28;20251;-70
2022/05/19 01:25:56;;;;;;;4.90;3.77;;;;;;;9.43;67.20;95992.69;4958167;28;20239;-71
2022/05/19 01:28:22;;;;;;;4.03;3.63;;;;;;;9.60;66.36;95986.13;4960930;28;20231;-68
2022/05/19 01:30:47;;;;;;;5.07;3.37;;;;;;;9.47;66.97;95985.44;4947231;28;20230;-67
2022/05/19 01:33:13;;;;;;;4.10;3.70;;;;;;;9.76;65.74;95987.53;4960999;28;20231;-71
2022/05/19 01:35:38;;;;;;;5.37;4.20;;;;;;;9.82;65.40;95993.13;4963152;28;20239;-70
2022/05/19 01:38:14;;;;;;;4.10;3.80;;;;;;;9.63;65.82;95996.38;4962304;28;20234;-71
2022/05/19 01:40:48;;;;;;;5.50;3.60;;;;;;;9.53;66.70;95997.25;4958440;28;20234;-70
2022/05/19 01:43:25;;;;;;;6.50;3.53;;;;;;;9.56;67.06;95997.00;4971973;28;20228;-67
2022/05/19 01:46:09;;;;;;;4.67;3.77;;;;;;;9.47;68.05;95994.13;5053977;28;20232;-67
2022/05/19 01:48:43;;;;;;;4.23;3.47;;;;;;;9.57;67.94;95996.88;5076166;28;20225;-70
2022/05/19 01:51:25;;;;;;;6.53;4.60;;;;;;;9.62;67.54;95993.88;5061868;28;20235;-71
2022/05/19 01:54:11;;;;;;;5.13;4.73;;;;;;;9.72;67.22;96000.06;5064011;28;20327;-67
2022/05/19 01:57:15;;;;;;;7.77;4.73;;;;;;;9.72;67.13;96005.31;4969238;28;20240;-67
2022/05/19 01:59:49;;;;;;;5.33;3.90;;;;;;;9.62;66.98;96004.38;4918220;29;20379;-67
2022/05/19 02:02:47;;;;;;;6.40;3.57;;;;;;;9.72;66.55;96006.16;4924219;28;20307;-68
2022/05/19 02:05:40;;;;;;;4.60;3.77;;;;;;;9.55;66.58;96008.47;4924449;29;20680;-67
2022/05/19 02:08:14;;;;;;;6.03;4.03;;;;;;;9.50;66.95;96004.41;4921611;29;20240;-67
2022/05/19 02:10:43;;;;;;;6.93;5.50;;;;;;;9.60;66.88;96015.00;4916849;29;20293;-68
2022/05/19 02:13:09;;;;;;;8.30;7.67;;;;;;;9.53;66.75;96013.81;4920593;29;20236;-68
2022/05/19 02:15:40;;;;;;;9.97;8.97;;;;;;;9.65;66.22;96012.00;4914634;29;20236;-68
2022/05/19 02:18:06;;;;;;;9.63;8.57;;;;;;;9.72;65.52;96003.53;4919130;29;20234;-68
2022/05/19 02:20:31;;;;;;;10.10;9.17;;;;;;;9.52;66.17;96022.66;4921129;29;20233;-67
2022/05/19 02:22:57;;;;;;;10.17;8.53;;;;;;;9.56;66.38;96018.00;4919043;29;20228;-66
2022/05/19 02:25:30;;;;;;;9.00;8.23;;;;;;;9.41;66.79;96018.25;4906401;29;20653;-67
2022/05/19 02:28:00;;;;;;;8.70;7.80;;;;;;;9.44;66.95;96015.38;4910862;29;20300;-67
2022/05/19 02:30:29;;;;;;;9.00;8.10;;;;;;;9.47;66.77;96012.50;4917098;29;20237;-67
2022/05/19 02:32:55;;;;;;;9.07;8.17;;;;;;;9.55;66.82;96018.97;4915926;28;20229;-66
2022/05/19 02:35:22;;;;;;;9.00;8.20;;;;;;;9.67;66.55;96015.34;4964207;28;20281;-66
2022/05/19 02:37:48;;;;;;;10.00;8.43;;;;;;;9.69;66.23;96030.03;4964810;28;20287;-66
2022/05/19 02:40:16;;;;;;;10.30;9.30;;;;;;;9.71;66.03;96020.25;4966737;28;20402;-67
2022/05/19 02:42:42;;;;;;;9.90;9.00;;;;;;;9.71;66.02;96020.25;5047233;28;20440;-67
2022/05/19 02:45:10;;;;;;;10.27;8.70;;;;;;;9.58;66.19;96006.41;5062401;28;20228;-67
2022/05/19 02:47:35;;;;;;;9.27;8.50;;;;;;;9.58;66.00;96016.91;5061872;28;20256;-68
2022/05/19 02:50:01;;;;;;;10.33;9.30;;;;;;;9.54;66.78;96014.66;5064687;28;20205;-67
2022/05/19 02:52:26;;;;;;;9.70;8.80;;;;;;;9.60;67.18;96017.66;5062034;28;20224;-68
2022/05/19 02:54:52;;;;;;;8.67;7.77;;;;;;;9.63;66.31;96020.03;5064527;28;20310;-68
2022/05/19 02:57:17;;;;;;;8.63;7.83;;;;;;;9.49;66.62;96020.28;5063651;28;20296;-68
2022/05/19 02:59:43;;;;;;;9.10;8.17;;;;;;;9.51;67.12;96018.34;5061884;28;20233;-68
2022/05/19 03:02:09;;;;;;;9.60;8.60;;;;;;;9.64;66.40;96021.69;5061198;28;20198;-67
2022/05/19 03:04:34;;;;;;;11.43;10.20;;;;;;;9.57;66.56;96017.88;5064047;28;20230;-67
2022/05/19 03:06:59;;;;;;;9.93;8.90;;;;;;;9.54;66.34;96020.72;5063890;28;20721;-67
2022/05/19 03:09:25;;;;;;;10.60;9.53;;;;;;;9.66;66.31;96025.03;5061670;28;20271;-67
2022/05/19 03:11:51;;;;;;;11.30;10.10;;;;;;;9.72;66.34;96014.03;5063318;28;20216;-67
2022/05/19 03:14:16;;;;;;;11.57;10.52;;;;;;;9.78;66.31;96027.63;5061538;28;20220;-67
2022/05/19 03:16:41;;;;;;;15.13;10.00;;;;;;;9.82;65.70;96021.19;5082438;28;20200;-68
2022/05/19 03:19:09;;;;;;;10.77;9.77;;;;;;;9.85;65.69;96028.81;5062781;28;20252;-69
2022/05/19 03:21:35;;;;;;;10.53;9.43;;;;;;;9.84;65.60;96022.75;5062246;28;20224;-67
2022/05/19 03:24:00;;;;;;;10.70;9.60;;;;;;;9.82;65.36;96026.44;5059245;28;20238;-67
2022/05/19 03:26:26;;;;;;;10.07;9.17;;;;;;;9.82;65.52;96023.81;5053351;28;20220;-68
2022/05/19 03:28:51;;;;;;;10.73;9.43;;;;;;;9.82;65.58;96024.66;5061405;28;20261;-67
2022/05/19 03:31:17;;;;;;;9.70;8.80;;;;;;;9.94;64.81;96030.69;5061544;28;20225;-67
2022/05/19 03:33:42;;;;;;;11.07;9.97;;;;;;;9.84;64.99;96028.00;5063331;28;20225;-67
2022/05/19 03:36:10;;;;;;;11.10;9.90;;;;;;;9.85;64.68;96036.69;5060299;28;20298;-67
2022/05/19 03:38:36;;;;;;;12.73;9.47;;;;;;;9.86;65.07;96047.09;5057760;28;20231;-67
2022/05/19 03:41:02;;;;;;;12.10;9.83;;;;;;;9.80;65.88;96057.25;5060922;28;20224;-66
2022/05/19 03:43:27;;;;;;;10.60;9.70;;;;;;;9.82;65.89;96050.09;5061119;28;20459;-67
2022/05/19 03:45:53;;;;;;;11.73;9.30;;;;;;;9.87;65.49;96059.28;5061042;28;20225;-67
2022/05/19 03:48:19;;;;;;;11.93;10.43;;;;;;;9.79;65.54;96055.59;5061489;28;20266;-67
2022/05/19 03:50:48;;;;;;;10.10;9.20;;;;;;;9.86;65.69;96060.22;5064375;28;20220;-67
2022/05/19 03:53:14;;;;;;;10.20;9.23;;;;;;;9.65;65.86;96067.16;5074798;28;20223;-67
2022/05/19 03:55:39;;;;;;;10.07;9.17;;;;;;;9.74;65.71;96073.50;5061606;28;20232;-67
2022/05/19 03:58:05;;;;;;;11.00;9.90;;;;;;;9.74;66.10;96071.69;5061469;28;20224;-67
2022/05/19 04:00:32;;;;;;;13.20;10.93;;;;;;;9.84;66.01;96071.81;5060973;28;20278;-67
2022/05/19 04:02:59;;;;;;;11.07;9.97;;;;;;;9.86;65.33;96078.63;5060985;28;20224;-67
2022/05/19 04:05:26;;;;;;;11.17;10.00;;;;;;;9.91;64.58;96075.63;5064968;28;20227;-66
2022/05/19 04:07:52;;;;;;;9.97;9.07;;;;;;;9.89;64.95;96075.75;5081656;28;20202;-67
2022/05/19 04:10:18;;;;;;;10.60;9.50;;;;;;;9.77;65.10;96079.34;5060140;28;20212;-67
2022/05/19 04:12:43;;;;;;;11.77;10.20;;;;;;;9.73;65.23;96085.81;5051447;28;20237;-67
2022/05/19 04:15:10;;;;;;;10.10;9.23;;;;;;;9.81;65.29;96085.16;5059399;28;20227;-67
2022/05/19 04:17:36;;;;;;;10.83;9.77;;;;;;;9.76;65.42;96085.56;5054420;28;20213;-68
2022/05/19 04:20:04;;;;;;;11.40;10.30;;;;;;;9.67;65.86;96086.25;5062698;28;20235;-67
2022/05/19 04:22:30;;;;;;;11.20;10.10;;;;;;;9.59;66.48;96078.97;5061097;28;20240;-65
2022/05/19 04:24:55;;;;;;;11.63;9.40;;;;;;;9.65;66.46;96086.41;5061639;28;20307;-66
2022/05/19 04:27:21;;;;;;;11.47;10.37;;;;;;;9.65;66.37;96089.03;5059639;28;20236;-66
2022/05/19 04:29:49;;;;;;;12.30;10.03;;;;;;;9.69;66.27;96087.81;5063298;28;20228;-66
2022/05/19 04:32:16;;;;;;;10.77;9.87;;;;;;;9.82;65.62;96085.06;5063503;28;20204;-67
2022/05/19 04:34:42;;;;;;;11.30;10.23;;;;;;;9.85;65.29;96084.00;5063338;28;20205;-65
2022/05/19 04:37:08;;;;;;;12.80;10.27;;;;;;;9.94;65.17;96091.13;5058248;28;20236;-67
2022/05/19 04:39:33;;;;;;;11.53;10.33;;;;;;;9.96;65.12;96089.22;5062717;28;20240;-66
2022/05/19 04:41:59;;;;;;;10.67;9.70;;;;;;;10.08;64.43;96093.50;5065451;28;20258;-66
2022/05/19 04:44:24;;;;;;;12.23;10.13;;;;;;;10.18;64.39;96090.97;5062143;28;20262;-66
2022/05/19 04:46:50;;;;;;;11.17;9.97;;;;;;;10.20;64.44;96096.94;5061568;28;20192;-66
2022/05/19 04:49:15;;;;;;;10.13;9.13;;;;;;;10.02;64.95;96098.41;5062211;28;20221;-69
2022/05/19 04:51:41;;;;;;;9.83;9.00;;;;;;;9.70;66.36;96097.38;5069066;28;20224;-65
2022/05/19 04:54:06;;;;;;;9.68;8.70;;;;;;;9.89;65.92;96095.91;5042390;28;20228;-65
2022/05/19 04:56:32;;;;;;;13.40;9.40;;;;;;;10.04;65.50;96099.97;5060001;28;20208;-65
2022/05/19 04:58:57;;;;;;;11.57;9.10;;;;;;;10.13;65.07;96101.00;5060341;28;20205;-67
2022/05/19 05:01:23;;;;;;;11.63;10.33;;;;;;;10.33;64.86;96108.19;5063912;28;20441;-64
2022/05/19 05:03:48;;;;;;;11.47;10.10;;;;;;;10.31;64.08;96104.00;5062501;28;20224;-65
2022/05/19 05:06:14;;;;;;;10.27;9.32;;;;;;;10.36;63.53;96107.09;5059293;28;20243;-64
2022/05/19 05:08:39;;;;;;;12.85;10.15;;;;;;;10.35;63.92;96115.94;5058004;28;20236;-69
2022/05/19 05:11:05;;;;;;;14.18;10.77;;;;;;;10.30;64.23;96115.47;5063541;28;20201;-65
2022/05/19 05:13:30;;;;;;;14.90;10.73;;;;;;;10.26;64.08;96119.28;5065563;28;20220;-69
2022/05/19 05:15:58;;;;;;;10.80;9.70;;;;;;;10.37;64.29;96116.63;5067546;28;20315;-66
2022/05/19 05:18:24;;;;;;;11.27;10.17;;;;;;;10.52;63.76;96119.84;5066498;28;20231;-69
2022/05/19 05:20:50;;;;;;;12.67;11.47;;;;;;;10.30;64.64;96120.75;5062305;28;20232;-69
2022/05/19 05:23:15;;;;;;;11.60;10.40;;;;;;;10.35;64.39;96123.84;5062312;28;20529;-66
2022/05/19 05:25:41;;;;;;;11.23;10.13;;;;;;;10.45;62.87;96121.28;5062525;28;20209;-67
2022/05/19 05:28:08;;;;;;;11.43;10.30;;;;;;;10.52;62.74;96123.31;5065976;28;20247;-69
2022/05/19 05:30:34;;;;;;;12.77;10.37;;;;;;;10.54;62.54;96124.00;5065493;28;20222;-70
2022/05/19 05:33:09;;;;;;;12.65;10.82;;;;;;;10.55;62.98;96127.47;5082206;28;20234;-70
2022/05/19 05:35:35;;;;;;;12.43;11.30;;;;;;;10.63;62.73;96125.06;5065251;28;20288;-68
2022/05/19 05:38:01;;;;;;;12.60;11.30;;;;;;;10.52;62.94;96119.84;5063134;28;20212;-68
2022/05/19 05:40:27;;;;;;;11.77;10.77;;;;;;;10.78;61.70;96136.13;5070091;28;20228;-69
2022/05/19 05:42:53;;;;;;;12.30;10.67;;;;;;;10.76;61.54;96133.63;5064879;28;20228;-69
2022/05/19 05:45:18;;;;;;;14.15;12.77;;;;;;;10.80;61.18;96134.22;5062535;28;20248;-65
2022/05/19 05:47:44;;;;;;;13.27;11.97;;;;;;;10.75;61.37;96136.41;5063501;28;20236;-70
2022/05/19 05:50:10;;;;;;;12.47;11.37;;;;;;;10.67;61.63;96139.66;5065046;28;20216;-69
2022/05/19 05:52:35;;;;;;;12.63;11.50;;;;;;;10.82;61.12;96129.66;5065168;28;20240;-68
2022/05/19 05:55:01;;;;;;;12.80;11.53;;;;;;;11.07;60.31;96138.19;5065392;28;20228;-69
2022/05/19 05:57:27;;;;;;;13.83;10.80;;;;;;;11.09;60.56;96142.31;5066786;28;20231;-69
2022/05/19 05:59:53;;;;;;;12.32;11.15;;;;;;;11.21;60.24;96135.22;5053313;28;20244;-69
2022/05/19 06:02:18;;;;;;;14.05;12.52;;;;;;;11.02;61.30;96136.75;5062650;28;20208;-66
2022/05/19 06:04:44;;;;;;;13.70;12.07;;;;;;;11.00;61.34;96128.13;5063403;28;20207;-66
2022/05/19 06:07:10;;;;;;;13.80;12.60;;;;;;;10.96;61.63;96137.25;5066148;28;20224;-64
2022/05/19 06:09:37;;;;;;;14.07;12.60;;;;;;;10.89;62.33;96136.09;5055452;28;20212;-68
2022/05/19 06:12:03;;;;;;;14.02;12.63;;;;;;;10.99;62.67;96142.28;5058195;28;20228;-69
2022/05/19 06:14:29;;;;;;;15.30;12.95;;;;;;;10.98;62.13;96131.84;5058974;28;20213;-68
2022/05/19 06:16:54;;;;;;;14.25;12.98;;;;;;;10.84;63.05;96135.63;5056163;28;20216;-70
2022/05/19 06:19:21;;;;;;;15.57;14.10;;;;;;;10.85;63.17;96139.91;5056000;28;20228;-68
2022/05/19 06:21:47;;;;;;;14.33;13.03;;;;;;;10.96;62.16;96137.25;5055224;28;20229;-70
2022/05/19 06:24:13;;;;;;;16.90;13.30;;;;;;;11.04;62.34;96148.00;5057957;28;20236;-68
2022/05/19 06:26:39;;;;;;;17.30;14.57;;;;;;;11.10;61.86;96138.75;5058322;28;20248;-65
2022/05/19 06:29:06;;;;;;;14.93;13.52;;;;;;;11.04;62.76;96150.63;5061727;28;20216;-63
2022/05/19 06:31:32;;;;;;;17.13;15.00;;;;;;;11.08;61.91;96137.19;5059263;28;20220;-70
2022/05/19 06:33:58;;;;;;;15.03;13.43;;;;;;;11.16;62.08;96143.50;5061307;28;20220;-67
2022/05/19 06:36:24;;;;;;;17.48;15.15;;;;;;;11.22;62.40;96139.50;5058876;28;20233;-70
2022/05/19 06:38:50;;;;;;;16.55;14.95;;;;;;;11.30;62.70;96141.50;5060170;28;20281;-70
2022/05/19 06:43:59;;;;;;;18.10;14.30;;;;;;;11.44;62.91;96135.91;5065932;28;20293;-66
2022/05/19 06:46:25;;;;;;;14.32;12.85;;;;;;;11.53;62.36;96140.41;5061384;28;20295;-67
2022/05/19 06:48:51;;;;;;;13.07;11.77;;;;;;;11.64;60.99;96139.50;5057385;28;20232;-68
2022/05/19 06:51:18;;;;;;;14.27;11.25;;;;;;;11.35;60.33;96147.22;5058827;28;20337;-68
2022/05/19 06:53:43;;;;;;;13.60;11.52;;;;;;;11.27;60.85;96142.59;5057006;28;20228;-65
2022/05/19 06:56:10;;;;;;;13.63;11.43;;;;;;;11.34;61.11;96141.13;5057311;28;20211;-67
2022/05/19 06:58:36;;;;;;;16.13;11.07;;;;;;;11.51;61.50;96144.97;5059854;28;20229;-67
2022/05/19 07:01:01;;;;;;;15.70;10.77;;;;;;;11.62;61.39;96144.06;5058747;28;20224;-61
2022/05/19 07:03:26;;;;;;;13.70;10.30;;;;;;;11.83;60.81;96136.13;5057604;28;20273;-65
2022/05/19 07:05:52;;;;;;;12.77;9.97;;;;;;;11.99;60.00;96143.56;5058878;28;20225;-67
2022/05/19 07:08:17;;;;;;;13.23;9.65;;;;;;;11.98;58.94;96139.28;5058233;28;20193;-62
2022/05/19 07:10:43;;;;;;;11.77;9.57;;;;;;;11.95;59.14;96140.38;5057792;28;20688;-64
2022/05/19 07:13:08;;;;;;;11.75;10.20;;;;;;;12.02;57.99;96145.94;5050834;28;20314;-63
2022/05/19 07:15:34;;;;;;;12.68;9.38;;;;;;;12.10;57.89;96151.38;5058821;28;20230;-69
2022/05/19 07:17:59;;;;;;;12.77;8.50;;;;;;;11.96;57.91;96146.47;5057520;28;20579;-67
2022/05/19 07:20:43;;;;;;;11.13;8.57;;;;;;;12.04;58.03;96139.56;5054061;28;20220;-66
2022/05/19 07:23:13;;;;;;;9.35;8.23;;;;;;;12.07;57.48;96144.56;5058196;28;20254;-67
2022/05/19 07:25:39;;;;;;;13.93;7.95;;;;;;;12.15;57.87;96146.53;5068488;28;20233;-68
2022/05/19 07:28:04;;;;;;;8.60;7.67;;;;;;;12.17;57.97;96144.59;5061021;28;20274;-69
2022/05/19 07:30:30;;;;;;;9.57;7.28;;;;;;;12.40;57.87;96144.38;5027260;28;20286;-65
2022/05/19 07:32:56;;;;;;;8.20;6.72;;;;;;;12.50;56.36;96142.59;5059529;28;20224;-65
2022/05/19 07:35:22;;;;;;;11.95;6.75;;;;;;;12.58;56.18;96140.13;5060872;28;20209;-64
2022/05/19 07:37:48;;;;;;;11.23;7.78;;;;;;;12.71;55.65;96142.50;5062372;28;20262;-62
2022/05/19 07:40:14;;;;;;;10.13;7.45;;;;;;;12.69;54.52;96139.16;5062535;28;20220;-62
2022/05/19 07:42:40;;;;;;;8.52;7.18;;;;;;;12.47;55.29;96135.78;5061300;28;20252;-66
2022/05/19 07:45:06;;;;;;;8.50;7.07;;;;;;;12.49;55.43;96128.59;5059312;28;20252;-62
2022/05/19 07:47:32;;;;;;;9.20;6.40;;;;;;;12.75;53.79;96135.97;5058371;28;20299;-63
2022/05/19 07:49:57;;;;;;;7.32;5.25;;;;;;;12.82;51.96;96138.91;5058830;28;20196;-67
2022/05/19 07:52:24;;;;;;;7.63;5.25;;;;;;;12.84;50.19;96127.22;5058297;28;20224;-66
2022/05/19 07:54:49;;;;;;;7.22;5.03;;;;;;;12.92;49.66;96121.25;5059685;28;20274;-66
2022/05/19 07:57:15;;;;;;;7.70;4.47;;;;;;;12.97;50.33;96130.44;5057689;28;20324;-63
2022/05/19 07:59:40;;;;;;;5.20;4.47;;;;;;;12.98;50.13;96133.91;5055545;28;20275;-66
2022/05/19 08:02:07;;;;;;;5.55;4.40;;;;;;;13.04;50.09;96130.69;5060465;28;20197;-65
2022/05/19 08:04:32;;;;;;;5.00;3.90;;;;;;;13.14;49.27;96134.16;5058856;28;20312;-69
2022/05/19 08:06:58;;;;;;;5.35;4.03;;;;;;;13.14;49.19;96128.88;5062332;28;20319;-66
2022/05/19 08:12:14;;;;;;;9.15;4.18;;;;;;;13.39;48.67;96131.94;5062154;28;20240;-61
2022/05/19 08:17:23;;;;;;;7.03;4.47;;;;;;;13.51;47.39;96122.06;5061062;28;20224;-68
2022/05/19 08:19:49;;;;;;;5.60;3.65;;;;;;;13.56;47.27;96123.28;5061324;28;20469;-68
2022/05/19 08:22:14;;;;;;;5.18;3.13;;;;;;;13.62;44.05;96117.44;5059058;28;20232;-64
2022/05/19 08:24:40;;;;;;;5.90;2.92;;;;;;;13.61;43.01;96115.78;5061801;28;20232;-66
2022/05/19 08:27:06;;;;;;;4.30;2.88;;;;;;;13.62;43.62;96125.34;5048816;28;20224;-64
2022/05/19 08:29:32;;;;;;;5.93;3.03;;;;;;;13.64;44.22;96120.75;5060610;28;20283;-68
2022/05/19 08:31:57;;;;;;;2.50;2.30;;;;;;;13.84;42.01;96118.88;5061918;28;20196;-71
2022/05/19 08:34:23;;;;;;;3.30;1.60;;;;;;;13.84;38.83;96120.69;5060726;28;20316;-63
2022/05/19 08:36:48;;;;;;;3.80;2.25;;;;;;;13.86;38.55;96108.16;5061091;28;20315;-65
2022/05/19 08:39:15;;;;;;;3.63;2.08;;;;;;;14.00;39.72;96110.31;5060613;28;20228;-68
2022/05/19 08:41:45;;;;;;;4.38;2.63;;;;;;;14.05;41.50;96117.84;5077482;28;20303;-63
2022/05/19 08:44:20;;;;;;;4.68;2.75;;;;;;;14.18;40.75;96115.69;5077399;28;20232;-67
2022/05/19 08:46:52;;;;;;;5.72;2.33;;;;;;;14.17;41.13;96111.38;5065461;28;20223;-63
2022/05/19 08:49:27;;;;;;;3.40;2.35;;;;;;;14.26;39.42;96113.13;5058115;28;20232;-63
2022/05/19 08:52:11;;;;;;;5.40;2.40;;;;;;;14.34;39.02;96115.03;5060197;28;20235;-66
2022/05/19 08:54:40;;;;;;;4.45;1.80;;;;;;;14.32;38.31;96101.13;5051758;28;20244;-68
2022/05/19 08:57:14;;;;;;;4.80;2.38;;;;;;;14.28;39.26;96102.41;5061711;28;20225;-68
2022/05/19 08:59:45;;;;;;;2.25;1.63;;;;;;;14.30;39.23;96100.44;5060436;28;20230;-68
2022/05/19 09:02:15;;;;;;;3.53;1.88;;;;;;;14.25;40.33;96113.28;5060130;28;20223;-66
2022/05/19 09:05:22;;;;;;;8.18;1.95;;;;;;;14.35;35.23;96100.81;5060780;28;20221;-66
2022/05/19 09:08:05;;;;;;;2.95;1.98;;;;;;;14.40;38.51;96092.44;5019542;28;20222;-62
2022/05/19 09:10:38;;;;;;;3.70;1.75;;;;;;;14.22;38.40;96084.47;5020550;28;20213;-68
2022/05/19 09:13:15;;;;;;;2.85;1.65;;;;;;;14.36;40.41;96083.97;5018410;28;20229;-69
2022/05/19 09:15:40;;;;;;;3.47;1.83;;;;;;;14.49;39.77;96079.16;5001089;28;20229;-65
2022/05/19 09:18:06;;;;;;;1.90;1.40;;;;;;;14.45;37.74;96083.06;5021838;28;20264;-68
2022/05/19 09:20:40;;;;;;;2.03;1.52;;;;;;;14.64;36.12;96076.00;4999179;28;20348;-67
2022/05/19 09:23:05;;;;;;;2.65;1.45;;;;;;;14.85;36.80;96073.91;5019530;28;20206;-66
2022/05/19 09:25:34;;;;;;;3.13;1.67;;;;;;;15.02;37.12;96071.38;5020134;28;20270;-62
2022/05/19 09:28:01;;;;;;;2.25;1.60;;;;;;;15.06;36.66;96080.69;5022139;28;20392;-67
2022/05/19 09:30:54;;;;;;;1.33;1.23;;;;;;;15.09;37.54;96085.69;5018070;28;20419;-65
2022/05/19 09:33:34;;;;;;;6.30;1.60;;;;;;;15.29;36.85;96070.41;5013123;28;20226;-61
2022/05/19 09:36:05;;;;;;;2.72;1.20;;;;;;;15.19;36.31;96070.53;5016614;28;20261;-67
2022/05/19 09:38:34;;;;;;;2.42;1.55;;;;;;;15.27;37.01;96072.41;5002301;28;20202;-65
2022/05/19 09:41:34;;;;;;;4.90;1.60;;;;;;;15.45;35.53;96073.22;5022648;28;20218;-61
2022/05/19 09:44:03;;;;;;;2.83;1.55;;;;;;;15.69;34.72;96064.59;5012764;28;20279;-66
2022/05/19 09:46:47;;;;;;;4.57;1.52;;;;;;;15.77;34.38;96061.13;5057646;28;20343;-66
2022/05/19 09:49:33;;;;;;;2.47;1.50;;;;;;;15.82;33.61;96056.19;5057579;28;20288;-67
2022/05/19 09:52:01;;;;;;;2.90;1.40;;;;;;;15.99;33.11;96063.22;5058288;28;20232;-67
2022/05/19 09:54:30;;;;;;;2.30;1.80;;;;;;;15.96;32.03;96062.69;5057376;28;20228;-65
2022/05/19 09:57:04;;;;;;;2.55;1.60;;;;;;;15.94;34.44;96048.78;5049461;28;20221;-68
2022/05/19 09:59:37;;;;;;;2.92;1.65;;;;;;;16.06;32.79;96058.09;5055850;28;20262;-61
2022/05/19 10:02:23;;;;;;;3.78;2.00;;;;;;;16.20;33.84;96054.84;5059794;28;20197;-67
2022/05/19 10:04:57;;;;;;;3.25;1.67;;;;;;;16.24;34.07;96052.69;5016929;28;20229;-65
2022/05/19 10:07:27;;;;;;;2.90;1.73;;;;;;;16.30;32.83;96047.59;5022186;28;20237;-68
2022/05/19 10:09:56;;;;;;;2.25;1.60;;;;;;;16.39;32.85;96048.44;5022895;28;20424;-66
2022/05/19 10:12:25;;;;;;;2.95;1.60;;;;;;;16.58;32.98;96047.31;5023925;28;20269;-66
2022/05/19 10:15:11;;;;;;;7.22;2.00;;;;;;;16.61;33.60;96036.34;5023952;28;20253;-67
2022/05/19 10:18:04;;;;;;;4.25;1.90;;;;;;;16.91;33.12;96040.22;5023366;28;20309;-67
2022/05/19 10:20:37;;;;;;;2.45;1.55;;;;;;;17.19;33.13;96034.56;5009952;28;20315;-61
2022/05/19 10:23:21;;;;;;;3.20;1.45;;;;;;;17.39;33.32;96035.03;5024728;28;20249;-67
2022/05/19 10:26:05;;;;;;;3.67;1.40;;;;;;;17.58;33.76;96028.50;5004072;28;20233;-66
2022/05/19 10:31:48;;;;;;;1.92;1.40;;;;;;;17.70;31.55;96027.16;5024327;28;20233;-64
2022/05/19 10:34:34;;;;;;;2.15;1.60;;;;;;;17.94;31.77;96025.44;5009790;28;20659;-64
2022/05/19 10:37:07;;;;;;;2.33;1.50;;;;;;;18.07;31.43;96015.91;5004955;28;20313;-65
2022/05/19 10:39:55;;;;;;;2.20;1.38;;;;;;;18.21;30.54;96013.50;5006271;28;20225;-62
2022/05/19 10:42:48;;;;;;;2.50;1.40;;;;;;;18.25;29.86;96012.94;5037790;28;20281;-62
2022/05/19 10:45:28;;;;;;;1.58;1.38;;;;;;;18.40;30.80;96013.03;5052870;28;20232;-65
2022/05/19 10:48:35;;;;;;;3.15;1.38;;;;;;;18.31;29.62;96014.13;5062887;28;21214;-64
2022/05/19 10:51:07;;;;;;;1.60;1.25;;;;;;;18.18;28.13;96003.22;5060726;28;20225;-66
2022/05/19 10:53:54;;;;;;;1.75;1.20;;;;;;;18.23;30.03;96000.81;5058400;28;20205;-66
2022/05/19 10:56:29;;;;;;;2.40;1.33;;;;;;;18.33;30.55;96006.75;5058961;28;20215;-65
2022/05/19 10:59:12;;;;;;;4.22;1.48;;;;;;;18.47;28.75;96005.16;5061028;28;20196;-68
2022/05/19 11:02:12;;;;;;;2.35;1.42;;;;;;;18.47;29.42;96008.69;5055493;28;20259;-66
2022/05/19 11:05:13;;;;;;;2.90;1.80;;;;;;;18.83;29.76;95999.28;5061810;28;20228;-66
2022/05/19 11:08:00;;;;;;;1.75;1.50;;;;;;;18.98;28.37;95996.66;5079815;28;20225;-68
2022/05/19 11:10:34;;;;;;;1.80;1.60;;;;;;;19.29;29.26;96000.03;5060758;28;20225;-67
2022/05/19 11:13:21;;;;;;;3.42;1.50;;;;;;;18.90;26.70;95998.41;5060168;28;20255;-63
2022/05/19 11:16:06;;;;;;;5.57;1.65;;;;;;;18.42;27.88;95991.59;5052115;28;20220;-61
2022/05/19 11:18:48;;;;;;;1.92;1.60;;;;;;;18.39;27.58;95983.91;5058339;28;20644;-69
2022/05/19 11:21:27;;;;;;;4.03;2.45;;;;;;;18.73;28.61;95980.84;5058673;28;20229;-69
2022/05/19 11:24:17;;;;;;;2.00;1.80;;;;;;;18.98;28.03;95980.66;5060587;28;20220;-66
2022/05/19 11:26:57;;;;;;;6.13;2.38;;;;;;;19.13;27.80;95981.53;5063921;28;20224;-67
2022/05/19 11:30:01;;;;;;;2.63;1.80;;;;;;;19.27;27.63;95966.56;5060796;28;20212;-65
2022/05/19 11:32:34;;;;;;;3.53;2.00;;;;;;;19.72;27.54;95965.56;5030826;28;20344;-69
2022/05/19 11:35:18;;;;;;;2.17;1.73;;;;;;;19.66;27.11;95954.81;5026764;28;20212;-67
2022/05/19 11:38:12;;;;;;;3.03;1.80;;;;;;;19.99;26.44;95956.09;5029536;28;20228;-63
2022/05/19 11:41:00;;;;;;;1.88;1.77;;;;;;;20.21;26.72;95950.78;5043275;28;20355;-66
2022/05/19 11:43:41;;;;;;;5.38;2.78;;;;;;;20.24;26.41;95943.22;5058079;28;20324;-65
2022/05/19 11:46:13;;;;;;;2.85;1.65;;;;;;;20.41;26.68;95948.31;5055902;28;20341;-68
2022/05/19 11:57:20;;;;;;;3.53;1.83;;;;;;;20.74;24.20;95932.59;5059767;28;20235;-67
2022/05/19 11:59:52;;;;;;;2.95;1.60;;;;;;;20.47;26.33;95928.84;5032557;28;20239;-68
2022/05/19 12:02:26;;;;;;;2.25;1.65;;;;;;;20.68;25.67;95926.19;5028759;28;20248;-68
2022/05/19 12:05:00;;;;;;;3.17;2.30;;;;;;;20.84;24.43;95910.91;5026752;28;20295;-64
2022/05/19 12:07:43;;;;;;;2.25;1.83;;;;;;;21.21;24.49;95911.56;5045918;28;20294;-65
2022/05/19 12:10:11;;;;;;;3.35;2.15;;;;;;;21.17;24.07;95910.28;5063643;28;20236;-66